createdAt,value
2018-04-23T00:01:18.053Z,33.25
2018-04-23T00:02:55.634Z,28.00
2018-04-23T00:04:33.499Z,40.00
2018-04-23T00:06:12.182Z,34.25
2018-04-23T00:07:51.160Z,35.50
2018-04-23T00:09:29.734Z,31.75
2018-04-23T00:11:08.104Z,32.75
2018-04-23T00:12:45.664Z,28.00
2018-04-23T00:14:24.223Z,29.75
2018-04-23T00:16:02.361Z,30.50
2018-04-23T00:17:40.737Z,29.75
2018-04-23T00:19:19.174Z,29.50
2018-04-23T00:20:57.921Z,30.75
2018-04-23T00:22:35.543Z,29.50
2018-04-23T00:24:13.152Z,31.00
2018-04-23T00:25:50.801Z,25.50
2018-04-23T00:27:28.931Z,26.25
2018-04-23T00:29:06.528Z,29.00
2018-04-23T00:30:44.185Z,31.00
2018-04-23T00:32:21.771Z,33.25
2018-04-23T00:34:00.021Z,34.75
2018-04-23T00:35:39.068Z,35.00
2018-04-23T00:37:16.814Z,34.75
2018-04-23T00:38:54.443Z,30.00
2018-04-23T00:40:32.534Z,26.00
2018-04-23T00:42:10.837Z,27.75
2018-04-23T00:43:48.440Z,30.00
2018-04-23T00:45:29.250Z,26.25
2018-04-23T00:47:07.382Z,30.50
2018-04-23T00:48:45.329Z,30.50
2018-04-23T00:50:22.976Z,32.75
2018-04-23T00:52:01.475Z,36.00
2018-04-23T00:53:42.952Z,30.50
2018-04-23T00:55:20.700Z,31.75
2018-04-23T00:56:58.484Z,28.50
2018-04-23T00:58:37.034Z,27.50
2018-04-23T01:00:16.633Z,30.50
2018-04-23T01:01:54.370Z,31.00
2018-04-23T01:03:32.828Z,32.00
2018-04-23T01:05:10.519Z,34.75
2018-04-23T01:06:48.434Z,29.75
2018-04-23T01:08:26.044Z,29.25
2018-04-23T01:10:04.372Z,30.50
2018-04-23T01:11:42.626Z,31.25
2018-04-23T01:13:20.633Z,37.00
2018-04-23T01:14:58.244Z,35.50
2018-04-23T01:16:35.867Z,29.75
2018-04-23T01:18:13.484Z,28.75
2018-04-23T01:19:51.195Z,29.50
2018-04-23T01:21:28.985Z,35.50
2018-04-23T01:23:06.601Z,29.25
2018-04-23T01:24:44.237Z,32.00
2018-04-23T01:26:22.153Z,33.50
2018-04-23T01:27:59.816Z,28.75
2018-04-23T01:29:38.363Z,30.75
2018-04-23T01:31:15.921Z,30.75
2018-04-23T01:32:53.968Z,30.50
2018-04-23T01:34:31.617Z,29.50
2018-04-23T01:36:09.148Z,34.00
2018-04-23T01:37:46.862Z,32.25
2018-04-23T01:39:25.673Z,31.25
2018-04-23T01:41:04.063Z,30.00
2018-04-23T01:42:41.729Z,36.50
2018-04-23T01:44:19.292Z,31.75
2018-04-23T01:45:57.399Z,34.00
2018-04-23T01:47:35.776Z,29.25
2018-04-23T01:49:13.403Z,29.75
2018-04-23T01:50:51.053Z,32.75
2018-04-23T01:52:29.855Z,35.50
2018-04-23T01:54:07.491Z,34.75
2018-04-23T01:55:45.010Z,33.00
2018-04-23T01:57:22.817Z,34.50
2018-04-23T01:59:00.833Z,37.50
2018-04-23T02:00:40.132Z,36.75
2018-04-23T02:02:17.654Z,31.25
2018-04-23T02:03:55.276Z,32.50
2018-04-23T02:05:32.956Z,37.25
2018-04-23T02:07:11.258Z,34.00
2018-04-23T02:08:49.640Z,33.75
2018-04-23T02:10:27.196Z,35.00
2018-04-23T02:12:05.166Z,38.25
2018-04-23T02:13:43.245Z,37.25
2018-04-23T02:15:20.853Z,35.25
2018-04-23T02:16:59.153Z,38.75
2018-04-23T02:18:37.309Z,36.50
2018-04-23T02:20:14.944Z,35.50
2018-04-23T02:21:54.246Z,33.50
2018-04-23T02:23:31.778Z,31.75
2018-04-23T02:25:09.918Z,29.75
2018-04-23T02:26:47.488Z,32.50
2018-04-23T02:28:25.092Z,34.00
2018-04-23T02:30:03.421Z,40.00
2018-04-23T02:31:41.550Z,33.75
2018-04-23T02:33:19.861Z,33.50
2018-04-23T02:34:57.499Z,36.75
2018-04-23T02:36:35.094Z,33.00
2018-04-23T02:38:13.196Z,40.75
2018-04-23T02:39:51.313Z,37.25
2018-04-23T02:41:28.892Z,30.25
2018-04-23T02:43:06.460Z,32.25
2018-04-23T02:44:44.546Z,32.75
2018-04-23T02:47:55.071Z,37.00
2018-04-23T02:49:32.659Z,36.75
2018-04-23T02:51:11.348Z,28.50
2018-04-23T02:52:49.549Z,32.00
2018-04-23T02:54:27.276Z,30.75
2018-04-23T02:56:05.059Z,29.50
2018-04-23T02:57:43.675Z,28.75
2018-04-23T02:59:21.226Z,28.00
2018-04-23T03:00:59.207Z,32.00
2018-04-23T03:02:37.354Z,26.00
2018-04-23T03:04:15.491Z,26.75
2018-04-23T03:05:53.466Z,24.75
2018-04-23T03:07:31.101Z,25.50
2018-04-23T03:09:09.004Z,33.75
2018-04-23T03:10:47.173Z,25.25
2018-04-23T03:12:25.657Z,24.25
2018-04-23T03:14:03.332Z,31.75
2018-04-23T03:15:41.664Z,31.00
2018-04-23T03:17:19.569Z,30.75
2018-04-23T03:18:57.213Z,28.50
2018-04-23T03:20:34.907Z,24.75
2018-04-23T03:22:12.485Z,26.75
2018-04-23T03:23:50.057Z,23.50
2018-04-23T03:25:27.714Z,17.00
2018-04-23T03:27:05.403Z,24.50
2018-04-23T03:28:44.118Z,18.00
2018-04-23T03:30:21.808Z,23.00
2018-04-23T03:31:59.385Z,17.75
2018-04-23T03:33:37.734Z,16.00
2018-04-23T03:35:16.643Z,20.75
2018-04-23T03:36:54.537Z,18.50
2018-04-23T03:38:32.235Z,21.50
2018-04-23T03:40:09.847Z,16.25
2018-04-23T03:41:48.357Z,24.00
2018-04-23T03:43:25.950Z,20.25
2018-04-23T03:45:05.375Z,19.00
2018-04-23T03:46:43.830Z,22.00
2018-04-23T03:48:21.832Z,21.00
2018-04-23T03:49:59.422Z,16.75
2018-04-23T03:51:37.118Z,21.50
2018-04-23T03:53:14.761Z,19.00
2018-04-23T03:54:52.853Z,21.25
2018-04-23T03:56:31.211Z,21.50
2018-04-23T03:58:09.719Z,22.75
2018-04-23T03:59:48.068Z,23.75
2018-04-23T04:01:26.059Z,19.00
2018-04-23T04:03:03.998Z,21.75
2018-04-23T04:04:42.330Z,23.50
2018-04-23T04:06:19.967Z,23.25
2018-04-23T04:07:59.096Z,21.25
2018-04-23T04:09:37.167Z,21.75
2018-04-23T04:11:14.694Z,22.25
2018-04-23T04:17:12.828Z,20.75
2018-04-23T04:18:50.967Z,21.50
2018-04-23T04:20:29.076Z,23.00
2018-04-23T04:22:06.819Z,22.25
2018-04-23T04:23:45.384Z,22.00
2018-04-23T04:25:23.277Z,21.00
2018-04-23T04:27:01.322Z,19.75
2018-04-23T04:28:39.745Z,20.00
2018-04-23T04:30:18.803Z,19.00
2018-04-23T04:31:57.222Z,21.00
2018-04-23T04:33:36.975Z,21.75
2018-04-23T04:35:14.648Z,20.00
2018-04-23T04:36:52.231Z,18.75
2018-04-23T04:38:30.561Z,18.25
2018-04-23T04:40:08.686Z,22.00
2018-04-23T04:41:46.343Z,18.25
2018-04-23T04:43:26.695Z,21.00
2018-04-23T04:45:05.535Z,21.50
2018-04-23T04:46:43.885Z,21.50
2018-04-23T04:48:23.465Z,21.25
2018-04-23T04:50:01.143Z,24.50
2018-04-23T04:51:45.093Z,21.50
2018-04-23T04:53:23.119Z,24.25
2018-04-23T04:55:01.621Z,19.25
2018-04-23T04:56:40.237Z,20.25
2018-04-23T04:58:20.778Z,21.50
2018-04-23T04:59:58.911Z,20.75
2018-04-23T05:01:37.311Z,20.50
2018-04-23T05:03:16.984Z,22.75
2018-04-23T05:04:55.684Z,20.00
2018-04-23T05:06:34.725Z,24.75
2018-04-23T05:08:12.450Z,25.25
2018-04-23T05:09:50.114Z,21.75
2018-04-23T05:11:27.747Z,22.25
2018-04-23T05:13:05.406Z,24.75
2018-04-23T05:14:43.690Z,19.25
2018-04-23T05:16:22.008Z,26.25
2018-04-23T05:17:59.698Z,24.50
2018-04-23T05:19:37.833Z,34.75
2018-04-23T05:21:15.498Z,30.00
2018-04-23T05:22:53.722Z,23.75
2018-04-23T05:24:32.355Z,31.50
2018-04-23T05:26:11.690Z,23.75
2018-04-23T05:27:49.458Z,28.00
2018-04-23T05:29:28.492Z,27.75
2018-04-23T05:31:06.619Z,28.75
2018-04-23T05:32:44.698Z,28.50
2018-04-23T05:34:23.185Z,27.50
2018-04-23T05:36:01.897Z,29.00
2018-04-23T05:37:41.497Z,28.75
2018-04-23T05:39:19.733Z,25.25
2018-04-23T05:40:57.513Z,26.00
2018-04-23T05:42:35.273Z,25.75
2018-04-23T05:44:12.962Z,32.00
2018-04-23T05:45:52.440Z,29.00
2018-04-23T05:47:30.688Z,26.50
2018-04-23T05:49:09.277Z,31.50
2018-04-23T05:50:47.308Z,31.25
2018-04-23T05:52:25.690Z,27.00
2018-04-23T05:54:03.385Z,27.25
2018-04-23T05:55:41.172Z,28.00
2018-04-23T05:57:19.770Z,25.00
2018-04-23T05:58:58.849Z,31.25
2018-04-23T06:00:37.511Z,25.50
2018-04-23T06:02:15.285Z,33.25
2018-04-23T06:03:53.197Z,31.75
2018-04-23T06:05:33.186Z,32.75
2018-04-23T06:07:10.854Z,33.00
2018-04-23T06:08:48.594Z,31.25
2018-04-23T06:10:26.422Z,29.00
2018-04-23T06:12:04.580Z,34.00
2018-04-23T06:13:43.157Z,35.25
2018-04-23T06:15:21.018Z,30.75
2018-04-23T06:16:58.680Z,32.75
2018-04-23T06:18:36.392Z,32.50
2018-04-23T06:20:14.842Z,32.00
2018-04-23T06:21:52.555Z,26.25
2018-04-23T06:23:30.245Z,33.25
2018-04-23T06:25:08.526Z,36.75
2018-04-23T06:26:46.172Z,26.25
2018-04-23T06:28:25.241Z,31.75
2018-04-23T06:30:04.171Z,33.00
2018-04-23T06:31:43.295Z,29.75
2018-04-23T06:33:21.185Z,27.00
2018-04-23T06:34:58.818Z,28.00
2018-04-23T06:36:36.542Z,31.50
2018-04-23T06:38:14.671Z,31.00
2018-04-23T06:39:52.341Z,35.00
2018-04-23T06:41:30.256Z,35.00
2018-04-23T06:43:08.766Z,28.50
2018-04-23T06:44:48.014Z,29.00
2018-04-23T06:46:26.590Z,30.75
2018-04-23T06:48:04.367Z,31.25
2018-04-23T06:49:43.666Z,30.00
2018-04-23T06:51:23.539Z,27.25
2018-04-23T06:53:01.223Z,27.75
2018-04-23T06:54:38.859Z,32.25
2018-04-23T06:56:17.226Z,27.75
2018-04-23T06:57:55.409Z,31.50
2018-04-23T06:59:33.271Z,31.50
2018-04-23T07:01:11.491Z,28.00
2018-04-23T07:02:49.213Z,32.50
2018-04-23T07:04:27.445Z,26.50
2018-04-23T07:06:05.852Z,27.00
2018-04-23T07:07:55.608Z,30.25
2018-04-23T07:09:34.060Z,28.50
2018-04-23T07:11:12.175Z,26.25
2018-04-23T07:12:49.773Z,27.00
2018-04-23T07:14:27.456Z,29.00
2018-04-23T07:16:06.337Z,36.50
2018-04-23T07:17:44.314Z,29.00
2018-04-23T07:19:22.115Z,29.25
2018-04-23T07:20:59.830Z,29.00
2018-04-23T07:22:38.321Z,30.25
2018-04-23T07:24:16.853Z,34.50
2018-04-23T07:25:55.957Z,30.25
2018-04-23T07:27:33.578Z,31.25
2018-04-23T07:29:11.220Z,31.25
2018-04-23T07:30:50.205Z,30.25
2018-04-23T07:32:29.196Z,31.00
2018-04-23T07:34:06.797Z,23.00
2018-04-23T07:35:44.864Z,25.50
2018-04-23T07:37:22.565Z,29.75
2018-04-23T07:39:00.224Z,31.50
2018-04-23T07:40:38.007Z,27.00
2018-04-23T07:42:16.122Z,28.25
2018-04-23T07:43:53.859Z,28.00
2018-04-23T07:45:32.379Z,34.00
2018-04-23T07:47:10.079Z,29.75
2018-04-23T07:48:48.171Z,33.50
2018-04-23T07:50:26.139Z,34.00
2018-04-23T07:52:04.733Z,29.00
2018-04-23T07:53:42.460Z,36.00
2018-04-23T07:55:20.600Z,26.50
2018-04-23T07:56:59.277Z,31.25
2018-04-23T07:58:37.676Z,37.00
2018-04-23T08:00:17.414Z,37.00
2018-04-23T08:01:56.262Z,36.25
2018-04-23T08:03:34.647Z,35.50
2018-04-23T08:05:13.260Z,27.00
2018-04-23T08:08:49.786Z,23.25
2018-04-23T08:10:27.404Z,21.00
2018-04-23T08:12:05.945Z,28.75
2018-04-23T08:13:45.509Z,27.75
2018-04-23T08:15:23.342Z,23.50
2018-04-23T08:17:00.965Z,21.25
2018-04-23T08:18:38.720Z,22.75
2018-04-23T08:20:19.961Z,20.25
2018-04-23T08:21:58.975Z,25.00
2018-04-23T08:23:36.555Z,18.00
2018-04-23T08:25:14.969Z,20.50
2018-04-23T08:26:53.361Z,18.50
2018-04-23T08:28:32.388Z,18.75
2018-04-23T08:30:10.348Z,20.50
2018-04-23T08:31:51.895Z,19.50
2018-04-23T08:33:30.046Z,18.75
2018-04-23T08:35:07.734Z,26.00
2018-04-23T08:36:45.426Z,20.75
2018-04-23T08:38:23.132Z,20.75
2018-04-23T08:40:02.173Z,22.50
2018-04-23T08:41:39.821Z,17.25
2018-04-23T08:43:18.319Z,22.50
2018-04-23T08:44:56.217Z,20.00
2018-04-23T08:46:35.179Z,22.75
2018-04-23T08:48:12.981Z,20.75
2018-04-23T08:49:50.601Z,22.00
2018-04-23T08:51:28.331Z,24.25
2018-04-23T08:53:06.398Z,18.25
2018-04-23T08:54:44.217Z,21.00
2018-04-23T08:56:21.918Z,19.25
2018-04-23T08:58:00.411Z,18.00
2018-04-23T08:59:38.516Z,20.75
2018-04-23T09:01:16.679Z,18.00
2018-04-23T09:02:54.329Z,18.25
2018-04-23T09:04:32.062Z,20.50
2018-04-23T09:06:10.098Z,22.50
2018-04-23T09:07:48.313Z,21.00
2018-04-23T09:09:26.504Z,20.50
2018-04-23T09:11:04.183Z,20.00
2018-04-23T09:12:41.908Z,17.25
2018-04-23T09:14:19.616Z,19.00
2018-04-23T09:16:18.993Z,23.25
2018-04-23T09:17:59.078Z,22.50
2018-04-23T09:19:38.015Z,22.50
2018-04-23T09:21:16.475Z,23.50
2018-04-23T09:22:54.065Z,25.75
2018-04-23T09:24:31.881Z,22.00
2018-04-23T09:26:10.194Z,22.00
2018-04-23T09:27:47.836Z,24.00
2018-04-23T09:29:25.532Z,25.75
2018-04-23T09:31:04.603Z,23.75
2018-04-23T09:32:42.773Z,24.00
2018-04-23T09:34:20.533Z,22.50
2018-04-23T09:35:58.284Z,24.00
2018-04-23T09:37:36.660Z,28.25
2018-04-23T09:39:14.747Z,26.75
2018-04-23T09:40:52.337Z,28.00
2018-04-23T09:42:29.979Z,24.00
2018-04-23T09:44:08.223Z,26.25
2018-04-23T09:45:48.516Z,26.50
2018-04-23T09:47:26.084Z,27.00
2018-04-23T09:49:03.784Z,23.50
2018-04-23T09:50:41.483Z,23.75
2018-04-23T09:52:19.580Z,23.75
2018-04-23T09:53:57.299Z,24.00
2018-04-23T09:55:34.903Z,27.25
2018-04-23T09:57:13.433Z,23.75
2018-04-23T09:58:52.160Z,19.00
2018-04-23T10:00:32.333Z,19.50
2018-04-23T10:02:12.860Z,19.75
2018-04-23T10:03:51.656Z,20.00
2018-04-23T10:05:29.820Z,20.75
2018-04-23T10:07:07.480Z,19.25
2018-04-23T10:08:46.148Z,18.50
2018-04-23T10:10:23.883Z,23.75
2018-04-23T10:12:04.669Z,21.50
2018-04-23T10:13:43.217Z,20.50
2018-04-23T10:15:21.201Z,18.75
2018-04-23T10:16:58.956Z,25.25
2018-04-23T10:18:36.690Z,18.25
2018-04-23T10:20:14.408Z,18.50
2018-04-23T10:21:53.487Z,17.75
2018-04-23T10:23:31.878Z,23.25
2018-04-23T10:25:09.984Z,15.00
2018-04-23T10:26:47.758Z,16.00
2018-04-23T10:28:25.365Z,15.50
2018-04-23T10:30:05.560Z,19.25
2018-04-23T10:31:44.908Z,22.50
2018-04-23T10:33:22.617Z,20.75
2018-04-23T10:35:00.565Z,19.50
2018-04-23T10:36:38.301Z,21.50
2018-04-23T10:38:16.319Z,18.50
2018-04-23T10:39:54.960Z,22.25
2018-04-23T10:41:33.454Z,19.75
2018-04-23T10:43:11.753Z,21.50
2018-04-23T10:44:50.180Z,16.75
2018-04-23T10:46:29.513Z,22.00
2018-04-23T10:48:07.932Z,15.50
2018-04-23T10:49:46.633Z,17.75
2018-04-23T10:51:25.817Z,19.25
2018-04-23T10:53:04.389Z,20.75
2018-04-23T10:54:42.190Z,19.25
2018-04-23T10:56:20.745Z,18.75
2018-04-23T10:58:01.533Z,21.50
2018-04-23T10:59:40.036Z,16.25
2018-04-23T11:01:17.731Z,18.75
2018-04-23T11:02:55.347Z,13.25
2018-04-23T11:04:33.492Z,16.50
2018-04-23T11:06:11.122Z,15.25
2018-04-23T11:07:49.050Z,19.25
2018-04-23T11:09:26.959Z,18.25
2018-04-23T11:11:05.893Z,15.25
2018-04-23T11:12:43.605Z,16.75
2018-04-23T11:16:00.721Z,19.00
2018-04-23T11:17:38.739Z,17.75
2018-04-23T11:19:17.109Z,20.00
2018-04-23T11:20:54.760Z,19.75
2018-04-23T11:22:32.697Z,17.00
2018-04-23T11:24:10.648Z,18.00
2018-04-23T11:25:48.314Z,19.00
2018-04-23T11:27:25.925Z,18.75
2018-04-23T11:29:04.401Z,18.75
2018-04-23T11:30:42.440Z,21.25
2018-04-23T11:32:20.094Z,21.75
2018-04-23T11:33:57.771Z,21.50
2018-04-23T11:35:35.281Z,16.50
2018-04-23T11:37:13.181Z,18.75
2018-04-23T11:38:51.109Z,21.50
2018-04-23T11:40:29.024Z,21.25
2018-04-23T11:42:07.369Z,17.50
2018-04-23T11:43:45.347Z,16.75
2018-04-23T11:45:24.632Z,14.00
2018-04-23T11:47:02.821Z,16.50
2018-04-23T11:48:40.436Z,14.25
2018-04-23T11:50:18.406Z,16.50
2018-04-23T11:51:56.064Z,19.25
2018-04-23T11:53:33.706Z,18.00
2018-04-23T11:55:12.173Z,20.25
2018-04-23T11:56:50.249Z,15.75
2018-04-23T11:58:27.862Z,19.00
2018-04-23T12:00:06.070Z,16.75
2018-04-23T12:01:43.691Z,14.00
2018-04-23T12:03:21.689Z,18.00
2018-04-23T12:04:59.316Z,18.50
2018-04-23T12:06:36.896Z,18.50
2018-04-23T12:08:14.571Z,17.75
2018-04-23T12:09:52.496Z,18.25
2018-04-23T12:11:30.903Z,16.00
2018-04-23T12:13:08.572Z,15.50
2018-04-23T12:14:46.144Z,21.50
2018-04-23T12:16:24.072Z,16.00
2018-04-23T12:18:01.722Z,17.75
2018-04-23T12:19:40.057Z,17.25
2018-04-23T12:21:17.657Z,17.50
2018-04-23T12:22:55.784Z,19.00
2018-04-23T12:24:33.398Z,43.50
2018-04-23T12:26:11.716Z,19.75
2018-04-23T12:27:49.984Z,16.25
2018-04-23T12:29:32.592Z,17.25
2018-04-23T12:31:11.305Z,20.75
2018-04-23T12:32:48.966Z,20.25
2018-04-23T12:34:26.677Z,18.75
2018-04-23T12:36:04.755Z,22.50
2018-04-23T12:37:42.294Z,21.75
2018-04-23T12:39:19.857Z,18.25
2018-04-23T12:40:57.551Z,18.75
2018-04-23T12:42:35.663Z,16.25
2018-04-23T12:44:13.250Z,16.25
2018-04-23T12:45:50.898Z,21.00
2018-04-23T12:47:28.529Z,15.25
2018-04-23T12:49:06.666Z,17.00
2018-04-23T12:50:44.341Z,16.25
2018-04-23T12:52:22.164Z,17.25
2018-04-23T12:54:00.665Z,16.50
2018-04-23T12:55:38.625Z,16.50
2018-04-23T12:57:16.261Z,15.25
2018-04-23T12:58:53.911Z,15.00
2018-04-23T13:00:31.617Z,16.50
2018-04-23T13:02:09.302Z,17.25
2018-04-23T13:03:46.934Z,17.50
2018-04-23T13:05:24.502Z,16.25
2018-04-23T13:07:02.615Z,13.75
2018-04-23T13:08:40.216Z,15.00
2018-04-23T13:10:17.865Z,16.75
2018-04-23T13:11:55.546Z,17.00
2018-04-23T13:13:33.868Z,16.25
2018-04-23T13:15:13.170Z,15.25
2018-04-23T13:16:52.673Z,16.00
2018-04-23T13:18:30.381Z,15.00
2018-04-23T13:20:08.574Z,14.75
2018-04-23T13:21:47.652Z,13.25
2018-04-23T13:24:58.197Z,12.25
2018-04-23T13:26:36.541Z,12.50
2018-04-23T13:28:14.360Z,11.50
2018-04-23T13:29:53.780Z,13.50
2018-04-23T13:31:32.284Z,12.00
2018-04-23T13:33:11.372Z,14.25
2018-04-23T13:34:49.220Z,13.75
2018-04-23T13:36:27.620Z,16.50
2018-04-23T13:38:06.500Z,16.25
2018-04-23T13:39:45.479Z,13.00
2018-04-23T13:41:23.904Z,15.75
2018-04-23T13:43:01.713Z,15.00
2018-04-23T13:44:39.456Z,11.00
2018-04-23T13:46:18.422Z,14.25
2018-04-23T13:47:56.682Z,13.50
2018-04-23T13:49:35.209Z,16.75
2018-04-23T13:51:13.809Z,15.50
2018-04-23T13:52:52.564Z,16.75
2018-04-23T13:54:30.306Z,18.75
2018-04-23T13:56:08.125Z,23.00
2018-04-23T13:57:46.615Z,20.50
2018-04-23T13:59:24.724Z,18.75
2018-04-23T14:01:03.228Z,16.25
2018-04-23T14:02:41.020Z,21.25
2018-04-23T14:04:24.438Z,20.00
2018-04-23T14:06:02.437Z,22.25
2018-04-23T14:07:42.204Z,20.25
2018-04-23T14:09:21.731Z,23.00
2018-04-23T14:11:00.472Z,17.50
2018-04-23T14:12:38.267Z,21.25
2018-04-23T14:14:15.976Z,18.75
2018-04-23T14:15:54.529Z,20.75
2018-04-23T14:17:32.526Z,19.00
2018-04-23T14:19:11.546Z,21.25
2018-04-23T14:20:49.315Z,21.25
2018-04-23T14:22:27.046Z,19.25
2018-04-23T14:24:04.826Z,17.50
2018-04-23T14:25:42.584Z,18.00
2018-04-23T14:27:21.118Z,18.00
2018-04-23T14:28:58.771Z,19.75
2018-04-23T14:30:36.935Z,19.75
2018-04-23T14:32:14.567Z,18.75
2018-04-23T14:33:52.261Z,18.50
2018-04-23T14:35:30.217Z,25.25
2018-04-23T14:37:08.526Z,21.00
2018-04-23T14:38:46.232Z,20.00
2018-04-23T14:40:24.089Z,22.50
2018-04-23T14:42:01.972Z,28.75
2018-04-23T14:43:40.936Z,23.00
2018-04-23T14:45:19.827Z,28.50
2018-04-23T14:46:57.555Z,23.25
2018-04-23T14:48:35.321Z,23.75
2018-04-23T14:50:14.751Z,25.50
2018-04-23T14:51:52.515Z,24.75
2018-04-23T14:53:30.238Z,21.50
2018-04-23T14:55:07.987Z,23.25
2018-04-23T14:56:46.153Z,22.50
2018-04-23T14:58:23.849Z,23.25
2018-04-23T15:00:01.743Z,21.00
2018-04-23T15:01:41.319Z,22.25
2018-04-23T15:03:19.344Z,26.75
2018-04-23T15:04:56.990Z,24.50
2018-04-23T15:06:34.778Z,18.00
2018-04-23T15:08:12.629Z,17.50
2018-04-23T15:09:50.346Z,30.00
2018-04-23T15:11:28.430Z,22.00
2018-04-23T15:13:06.340Z,25.00
2018-04-23T15:14:44.048Z,24.25
2018-04-23T15:16:23.525Z,24.25
2018-04-23T15:18:01.424Z,21.00
2018-04-23T15:19:39.362Z,22.75
2018-04-23T15:21:18.951Z,25.25
2018-04-23T15:22:57.127Z,22.25
2018-04-23T15:24:34.806Z,22.00
2018-04-23T15:28:09.585Z,25.25
2018-04-23T15:29:47.314Z,24.50
2018-04-23T15:31:26.326Z,24.25
2018-04-23T15:33:04.901Z,24.75
2018-04-23T15:34:42.938Z,27.75
2018-04-23T15:36:20.777Z,26.50
2018-04-23T15:37:58.636Z,25.00
2018-04-23T15:39:37.209Z,22.75
2018-04-23T15:41:15.253Z,19.50
2018-04-23T15:42:52.953Z,26.00
2018-04-23T15:44:30.770Z,25.75
2018-04-23T15:46:09.946Z,30.75
2018-04-23T15:47:47.994Z,29.00
2018-04-23T15:49:28.410Z,22.25
2018-04-23T15:51:06.385Z,27.25
2018-04-23T15:52:45.051Z,27.25
2018-04-23T15:54:23.173Z,26.25
2018-04-23T15:56:00.845Z,26.25
2018-04-23T15:57:38.604Z,24.50
2018-04-23T15:59:16.528Z,35.50
2018-04-23T16:00:54.515Z,23.00
2018-04-23T16:02:32.342Z,25.25
2018-04-23T16:04:10.131Z,28.25
2018-04-23T16:05:48.096Z,27.75
2018-04-23T16:07:26.186Z,27.75
2018-04-23T16:09:04.232Z,28.00
2018-04-23T16:10:42.009Z,27.75
2018-04-23T16:12:19.728Z,31.00
2018-04-23T16:13:57.792Z,27.75
2018-04-23T16:15:35.491Z,27.25
2018-04-23T16:17:17.674Z,32.75
2018-04-23T16:18:57.072Z,33.75
2018-04-23T16:20:34.811Z,29.00
2018-04-23T16:22:12.573Z,27.75
2018-04-23T16:23:50.396Z,32.50
2018-04-23T16:25:28.102Z,33.75
2018-04-23T16:27:06.281Z,29.00
2018-04-23T16:28:44.129Z,29.25
2018-04-23T16:30:21.899Z,50.75
2018-04-23T16:32:00.249Z,28.50
2018-04-23T16:33:39.432Z,29.75
2018-04-23T16:35:17.196Z,29.75
2018-04-23T16:36:55.095Z,27.75
2018-04-23T16:38:33.577Z,27.00
2018-04-23T16:40:11.665Z,30.50
2018-04-23T16:41:50.308Z,35.00
2018-04-23T16:43:28.424Z,33.25
2018-04-23T16:45:07.671Z,32.50
2018-04-23T16:46:45.878Z,31.25
2018-04-23T16:48:24.701Z,32.00
2018-04-23T16:50:02.459Z,27.50
2018-04-23T16:51:40.917Z,26.00
2018-04-23T16:53:19.063Z,31.75
2018-04-23T16:54:58.245Z,28.75
2018-04-23T16:56:35.987Z,42.50
2018-04-23T16:58:14.875Z,28.50
2018-04-23T16:59:53.714Z,33.00
2018-04-23T17:01:32.332Z,32.75
2018-04-23T17:03:10.913Z,28.00
2018-04-23T17:04:48.617Z,27.75
2018-04-23T17:06:28.677Z,30.75
2018-04-23T17:08:07.477Z,36.75
2018-04-23T17:09:45.181Z,28.50
2018-04-23T17:11:23.113Z,29.25
2018-04-23T17:13:01.571Z,28.50
2018-04-23T17:14:39.653Z,30.75
2018-04-23T17:16:23.570Z,31.50
2018-04-23T17:18:01.557Z,32.50
2018-04-23T17:19:39.871Z,32.75
2018-04-23T17:21:20.078Z,30.25
2018-04-23T17:22:58.815Z,31.00
2018-04-23T17:24:36.722Z,30.00
2018-04-23T17:28:03.382Z,33.00
2018-04-23T17:29:51.937Z,32.50
2018-04-23T17:31:30.537Z,31.25
2018-04-23T17:33:08.342Z,30.00
2018-04-23T17:34:46.478Z,29.75
2018-04-23T17:36:24.151Z,34.00
2018-04-23T17:38:02.042Z,28.00
2018-04-23T17:39:40.367Z,31.00
2018-04-23T17:41:20.022Z,38.25
2018-04-23T17:42:58.602Z,34.00
2018-04-23T17:44:36.750Z,40.75
2018-04-23T17:46:15.210Z,35.50
2018-04-23T17:47:52.884Z,33.25
2018-04-23T17:49:30.590Z,34.00
2018-04-23T17:51:08.739Z,37.75
2018-04-23T17:52:47.217Z,35.25
2018-04-23T17:54:25.021Z,32.75
2018-04-23T17:56:03.112Z,29.00
2018-04-23T17:57:41.823Z,31.00
2018-04-23T17:59:19.559Z,33.75
2018-04-23T18:00:57.962Z,34.25
2018-04-23T18:02:35.612Z,34.25
2018-04-23T18:04:13.683Z,35.00
2018-04-23T18:05:52.177Z,28.00
2018-04-23T18:07:31.243Z,35.25
2018-04-23T18:09:09.975Z,30.75
2018-04-23T18:10:48.032Z,40.75
2018-04-23T18:12:25.643Z,34.00
2018-04-23T18:14:03.224Z,36.25
2018-04-23T18:15:40.799Z,34.50
2018-04-23T18:17:18.834Z,34.25
2018-04-23T18:18:56.425Z,28.00
2018-04-23T18:20:34.061Z,32.75
2018-04-23T18:22:12.426Z,36.50
2018-04-23T18:23:52.400Z,42.75
2018-04-23T18:25:31.273Z,39.25
2018-04-23T18:27:08.877Z,36.75
2018-04-23T18:28:48.774Z,38.50
2018-04-23T18:30:31.328Z,36.25
2018-04-23T18:32:09.956Z,36.00
2018-04-23T18:33:47.533Z,42.25
2018-04-23T18:35:25.155Z,39.50
2018-04-23T18:37:03.191Z,36.75
2018-04-23T18:38:41.349Z,42.75
2018-04-23T18:40:19.079Z,38.25
2018-04-23T18:41:57.504Z,42.50
2018-04-23T18:43:35.790Z,39.25
2018-04-23T18:45:15.925Z,42.50
2018-04-23T18:46:54.585Z,38.50
2018-04-23T18:48:33.354Z,47.00
2018-04-23T18:50:11.458Z,36.75
2018-04-23T18:51:49.250Z,41.25
2018-04-23T18:53:27.183Z,52.75
2018-04-23T18:55:05.892Z,39.50
2018-04-23T18:56:51.532Z,41.25
2018-04-23T18:58:29.783Z,38.00
2018-04-23T19:00:08.651Z,39.75
2018-04-23T19:01:49.027Z,35.25
2018-04-23T19:03:34.731Z,39.75
2018-04-23T19:05:12.623Z,39.75
2018-04-23T19:08:36.688Z,38.75
2018-04-23T19:10:14.477Z,42.50
2018-04-23T19:13:34.323Z,45.75
2018-04-23T19:15:13.350Z,37.00
2018-04-23T19:16:53.172Z,42.75
2018-04-23T19:18:30.980Z,38.75
2018-04-23T19:20:08.935Z,37.75
2018-04-23T19:21:47.130Z,36.75
2018-04-23T19:23:25.056Z,36.00
2018-04-23T19:25:02.778Z,36.25
2018-04-23T19:26:40.613Z,39.50
2018-04-23T19:28:18.631Z,38.50
2018-04-23T19:29:57.249Z,38.00
2018-04-23T19:31:35.235Z,37.50
2018-04-23T19:33:12.865Z,35.50
2018-04-23T19:34:52.223Z,27.75
2018-04-23T19:36:30.157Z,42.25
2018-04-23T19:38:08.952Z,37.75
2018-04-23T19:39:47.632Z,36.75
2018-04-23T19:41:25.829Z,36.50
2018-04-23T19:43:10.120Z,29.25
2018-04-23T19:44:50.635Z,35.25
2018-04-23T19:46:28.687Z,28.00
2018-04-23T19:48:06.423Z,31.50
2018-04-23T19:49:46.046Z,37.50
2018-04-23T19:51:23.736Z,30.25
2018-04-23T19:53:01.941Z,31.25
2018-04-23T19:54:39.552Z,30.50
2018-04-23T19:56:17.352Z,31.25
2018-04-23T19:57:55.972Z,32.00
2018-04-23T19:59:34.441Z,33.25
2018-04-23T20:01:12.227Z,26.50
2018-04-23T20:02:56.037Z,38.25
2018-04-23T20:04:42.408Z,31.00
2018-04-23T20:06:21.986Z,34.00
2018-04-23T20:08:00.691Z,25.25
2018-04-23T20:09:38.540Z,33.50
2018-04-23T20:11:16.253Z,34.00
2018-04-23T20:12:54.929Z,30.00
2018-04-23T20:14:32.756Z,31.00
2018-04-23T20:16:10.387Z,26.00
2018-04-23T20:17:48.173Z,30.25
2018-04-23T20:19:27.011Z,37.75
2018-04-23T20:21:04.795Z,29.25
2018-04-23T20:22:43.200Z,27.25
2018-04-23T20:24:21.687Z,27.00
2018-04-23T20:25:59.913Z,28.00
2018-04-23T20:27:37.694Z,27.25
2018-04-23T20:29:15.577Z,26.75
2018-04-23T20:30:53.436Z,30.25
2018-04-23T20:32:31.669Z,27.00
2018-04-23T20:34:09.566Z,23.25
2018-04-23T20:35:48.037Z,28.00
2018-04-23T20:37:26.091Z,23.25
2018-04-23T20:39:05.181Z,23.75
2018-04-23T20:40:42.836Z,25.25
2018-04-23T20:42:20.505Z,25.00
2018-04-23T20:43:58.881Z,23.50
2018-04-23T20:45:37.193Z,25.50
2018-04-23T20:47:14.856Z,33.00
2018-04-23T20:48:54.001Z,41.50
2018-04-23T20:50:31.697Z,47.75
2018-04-23T20:52:09.964Z,44.50
2018-04-23T20:53:48.335Z,43.00
2018-04-23T20:55:26.428Z,47.25
2018-04-23T20:57:04.114Z,45.00
2018-04-23T20:58:44.936Z,46.25
2018-04-23T21:00:24.640Z,41.50
2018-04-23T21:02:03.765Z,40.25
2018-04-23T21:03:41.506Z,38.25
2018-04-23T21:05:19.250Z,36.75
2018-04-23T21:06:56.894Z,34.25
2018-04-23T21:08:37.384Z,29.25
2018-04-23T21:10:15.742Z,30.25
2018-04-23T21:11:56.335Z,30.50
2018-04-23T21:13:34.241Z,36.50
2018-04-23T21:15:12.987Z,26.25
2018-04-23T21:16:54.582Z,28.50
2018-04-23T21:18:33.152Z,25.00
2018-04-23T21:20:10.930Z,29.50
2018-04-23T21:21:48.612Z,28.75
2018-04-23T21:23:27.097Z,26.75
2018-04-23T21:25:07.616Z,27.25